Time;durP1;ratioP1;P1;durP2;ratioP2;P2;SDS_P1;SDS_P2;PMS_P1;PMS_P2;Temp;Humidity;BMP_temperature;BMP_pressure;BME280_temperature;BME280_humidity;BME280_pressure;Samples;Min_cycle;Max_cycle;Signal;HPM_P1;HPM_P2
2022/07/12 00:01:43;;;;;;;4.57;3.10;;;;;;;;;;5052628;27;97128;-74
2022/07/12 00:04:10;;;;;;;6.47;3.40;;;;;;;;;;5060581;27;95492;-74
2022/07/12 00:06:36;;;;;;;6.20;3.33;;;;;;;;;;5073352;27;96797;-74
2022/07/12 00:09:03;;;;;;;5.13;3.15;;;;;;;;;;5073138;27;97537;-74
2022/07/12 00:11:29;;;;;;;4.47;3.20;;;;;;;;;;5076982;27;95066;-74
2022/07/12 00:13:56;;;;;;;4.55;2.85;;;;;;;;;;5067652;27;97428;-73
2022/07/12 00:16:23;;;;;;;4.07;2.67;;;;;;;;;;5059007;27;95557;-73
2022/07/12 00:18:49;;;;;;;7.35;3.00;;;;;;;;;;5064455;27;96766;-74
2022/07/12 00:21:15;;;;;;;3.70;2.50;;;;;;;;;;5052696;27;98422;-73
2022/07/12 00:23:42;;;;;;;5.35;3.25;;;;;;;;;;5052037;27;95308;-74
2022/07/12 00:26:08;;;;;;;5.43;2.72;;;;;;;;;;5052664;27;97107;-74
2022/07/12 00:28:34;;;;;;;17.95;3.70;;;;;;;;;;5055808;27;97315;-74
2022/07/12 00:31:00;;;;;;;4.72;3.10;;;;;;;;;;5074404;27;95276;-74
2022/07/12 00:33:27;;;;;;;5.15;3.00;;;;;;;;;;5067776;27;97242;-74
2022/07/12 00:35:54;;;;;;;4.15;2.70;;;;;;;;;;5072328;27;95563;-74
2022/07/12 00:38:20;;;;;;;19.10;3.45;;;;;;;;;;5072138;27;97077;-74
2022/07/12 00:40:47;;;;;;;29.92;3.63;;;;;;;;;;5059408;27;97381;-74
2022/07/12 00:43:13;;;;;;;5.47;3.05;;;;;;;;;;5053260;27;95307;-73
2022/07/12 00:45:39;;;;;;;5.82;2.80;;;;;;;;;;5064883;27;98056;-74
2022/07/12 00:48:06;;;;;;;7.85;2.58;;;;;;;;;;5072017;27;96334;-74
2022/07/12 00:50:32;;;;;;;4.25;2.70;;;;;;;;;;5072435;27;95302;-74
2022/07/12 00:52:58;;;;;;;6.10;3.13;;;;;;;;;;5067310;27;96839;-73
2022/07/12 00:55:25;;;;;;;17.17;2.85;;;;;;;;;;5071991;27;95229;-74
2022/07/12 00:57:52;;;;;;;4.90;3.15;;;;;;;;;;5071741;27;97392;-74
2022/07/12 01:00:21;;;;;;;4.88;3.13;;;;;;;;;;5071682;27;97356;-73
2022/07/12 01:02:47;;;;;;;5.35;2.72;;;;;;;;;;5075673;27;95325;-74
2022/07/12 01:05:14;;;;;;;4.20;2.45;;;;;;;;;;5075963;27;97258;-74
2022/07/12 01:07:41;;;;;;;3.45;2.58;;;;;;;;;;5074348;27;97603;-74
2022/07/12 01:10:07;;;;;;;20.67;2.60;;;;;;;;;;5069185;27;95313;-73
2022/07/12 01:12:34;;;;;;;2.90;2.13;;;;;;;;;;5072108;27;96956;-74
2022/07/12 01:15:01;;;;;;;26.02;2.90;;;;;;;;;;5076054;27;97679;-74
2022/07/12 01:17:27;;;;;;;6.53;2.25;;;;;;;;;;5070213;27;96804;-74
2022/07/12 01:19:57;;;;;;;6.45;2.33;;;;;;;;;;5075309;27;96066;-74
2022/07/12 01:22:29;;;;;;;7.60;2.45;;;;;;;;;;5075622;27;95328;-74
2022/07/12 01:24:56;;;;;;;3.55;2.30;;;;;;;;;;5075629;27;95645;-74
2022/07/12 01:27:22;;;;;;;4.03;2.25;;;;;;;;;;5071936;27;97331;-74
2022/07/12 01:29:49;;;;;;;2.38;1.92;;;;;;;;;;5075712;27;95411;-74
2022/07/12 01:32:28;;;;;;;7.38;2.53;;;;;;;;;;5071067;27;95727;-74
2022/07/12 01:34:56;;;;;;;4.40;2.20;;;;;;;;;;5075105;27;97544;-74
2022/07/12 01:37:23;;;;;;;5.05;2.17;;;;;;;;;;5075976;27;95438;-74
2022/07/12 01:39:53;;;;;;;7.15;3.03;;;;;;;;;;5072327;27;97496;-73
2022/07/12 01:42:23;;;;;;;8.75;2.70;;;;;;;;;;5055065;27;95401;-73
2022/07/12 01:44:50;;;;;;;4.40;2.53;;;;;;;;;;5054281;27;96803;-74
2022/07/12 01:47:20;;;;;;;6.75;1.90;;;;;;;;;;5074430;27;97242;-74
2022/07/12 01:49:46;;;;;;;4.20;2.00;;;;;;;;;;5071764;27;96120;-74
2022/07/12 01:52:13;;;;;;;3.08;2.05;;;;;;;;;;5056127;27;96735;-74
2022/07/12 01:54:39;;;;;;;5.75;1.88;;;;;;;;;;5053679;27;97297;-74
2022/07/12 01:57:06;;;;;;;4.35;1.90;;;;;;;;;;5062450;27;95222;-74
2022/07/12 01:59:32;;;;;;;3.15;2.10;;;;;;;;;;5078016;27;96826;-74
2022/07/12 02:01:59;;;;;;;2.80;1.88;;;;;;;;;;5074706;27;95410;-74
2022/07/12 02:04:25;;;;;;;3.33;1.83;;;;;;;;;;5073818;27;97656;-74
2022/07/12 02:06:52;;;;;;;2.53;1.80;;;;;;;;;;5065143;27;97353;-74
2022/07/12 02:09:18;;;;;;;3.30;2.10;;;;;;;;;;5072238;27;95993;-74
2022/07/12 02:11:46;;;;;;;3.83;2.25;;;;;;;;;;5073382;27;96930;-73
2022/07/12 02:14:13;;;;;;;3.35;2.08;;;;;;;;;;5074248;27;97286;-74
2022/07/12 02:16:40;;;;;;;5.88;2.05;;;;;;;;;;5069681;27;95375;-73
2022/07/12 02:19:07;;;;;;;3.92;2.05;;;;;;;;;;5061336;27;97547;-75
2022/07/12 02:21:35;;;;;;;3.00;1.90;;;;;;;;;;5075511;27;97938;-73
2022/07/12 02:24:06;;;;;;;2.55;1.83;;;;;;;;;;5059691;27;96684;-74
2022/07/12 02:26:35;;;;;;;4.80;1.90;;;;;;;;;;5064542;27;97349;-74
2022/07/12 02:29:15;;;;;;;2.83;1.98;;;;;;;;;;5059913;27;95725;-74
2022/07/12 02:31:41;;;;;;;5.15;2.33;;;;;;;;;;5064794;27;97373;-74
2022/07/12 02:34:08;;;;;;;3.35;2.15;;;;;;;;;;5062164;27;97555;-74
2022/07/12 02:36:35;;;;;;;3.33;2.13;;;;;;;;;;5062765;27;95284;-74
2022/07/12 02:39:03;;;;;;;7.35;2.00;;;;;;;;;;5058489;27;96855;-74
2022/07/12 02:41:30;;;;;;;7.47;1.90;;;;;;;;;;5071085;27;97479;-74
2022/07/12 02:43:57;;;;;;;2.70;1.80;;;;;;;;;;5056148;27;97062;-74
2022/07/12 02:46:23;;;;;;;4.53;2.00;;;;;;;;;;5068512;27;96519;-74
2022/07/12 02:48:50;;;;;;;3.35;2.00;;;;;;;;;;5058186;27;95691;-74
2022/07/12 02:51:16;;;;;;;3.10;2.10;;;;;;;;;;5067127;27;97108;-73
2022/07/12 02:53:42;;;;;;;5.80;2.35;;;;;;;;;;5062424;27;97322;-73
2022/07/12 02:56:09;;;;;;;2.85;1.90;;;;;;;;;;5064354;27;95354;-74
2022/07/12 02:58:36;;;;;;;2.88;2.00;;;;;;;;;;5056604;27;96972;-74
2022/07/12 03:01:02;;;;;;;3.08;2.00;;;;;;;;;;5067528;27;97261;-74
2022/07/12 03:03:29;;;;;;;8.10;2.28;;;;;;;;;;5065877;27;96099;-73
2022/07/12 03:05:56;;;;;;;6.72;2.17;;;;;;;;;;5058630;27;97291;-73
2022/07/12 03:08:22;;;;;;;11.85;2.50;;;;;;;;;;5070069;27;95176;-73
2022/07/12 03:10:49;;;;;;;3.00;2.13;;;;;;;;;;5057423;27;97066;-74
2022/07/12 03:13:15;;;;;;;9.05;2.35;;;;;;;;;;5056133;27;97372;-73
2022/07/12 03:15:41;;;;;;;4.00;2.00;;;;;;;;;;5064772;27;95342;-74
2022/07/12 03:18:09;;;;;;;3.17;2.17;;;;;;;;;;5058921;27;97005;-74
2022/07/12 03:20:36;;;;;;;2.80;2.00;;;;;;;;;;5066713;27;97304;-73
2022/07/12 03:23:02;;;;;;;3.75;2.13;;;;;;;;;;5056055;27;96218;-73
2022/07/12 03:25:29;;;;;;;3.03;1.95;;;;;;;;;;5065299;27;97415;-73
2022/07/12 03:27:55;;;;;;;3.33;2.25;;;;;;;;;;5059847;27;95220;-73
2022/07/12 03:30:21;;;;;;;4.53;2.08;;;;;;;;;;5067145;27;97088;-74
2022/07/12 03:32:49;;;;;;;2.85;2.00;;;;;;;;;;5056869;27;96228;-73
2022/07/12 03:35:16;;;;;;;3.78;2.60;;;;;;;;;;5061126;27;97457;-73
2022/07/12 03:37:42;;;;;;;3.10;2.25;;;;;;;;;;5063419;27;96732;-74
2022/07/12 03:40:09;;;;;;;8.73;2.40;;;;;;;;;;5057658;27;97435;-73
2022/07/12 03:42:35;;;;;;;6.22;2.70;;;;;;;;;;5056169;27;95321;-73
2022/07/12 03:45:02;;;;;;;3.30;2.40;;;;;;;;;;5067172;27;96805;-74
2022/07/12 03:47:31;;;;;;;5.50;2.78;;;;;;;;;;5065091;27;97265;-73
2022/07/12 03:49:58;;;;;;;4.18;2.78;;;;;;;;;;5069028;27;97107;-73
2022/07/12 03:52:24;;;;;;;5.35;2.80;;;;;;;;;;5056108;27;96060;-72
2022/07/12 03:54:50;;;;;;;7.43;2.33;;;;;;;;;;5068240;27;95274;-74
2022/07/12 03:57:17;;;;;;;3.47;2.30;;;;;;;;;;5060595;27;96798;-74
2022/07/12 03:59:44;;;;;;;5.43;2.60;;;;;;;;;;5059760;27;97061;-74
2022/07/12 04:02:11;;;;;;;3.20;2.00;;;;;;;;;;5068171;27;95292;-73
2022/07/12 04:04:38;;;;;;;3.78;2.00;;;;;;;;;;5058356;27;97172;-73
2022/07/12 04:07:04;;;;;;;3.08;1.80;;;;;;;;;;5058865;27;98961;-73
2022/07/12 04:09:31;;;;;;;4.20;2.38;;;;;;;;;;5063987;27;95436;-73
2022/07/12 04:11:57;;;;;;;6.72;2.50;;;;;;;;;;5059599;27;98246;-73
2022/07/12 04:14:24;;;;;;;6.50;3.17;;;;;;;;;;5054021;27;95204;-73
2022/07/12 04:16:50;;;;;;;4.03;2.25;;;;;;;;;;5066020;27;97227;-74
2022/07/12 04:19:16;;;;;;;6.50;2.90;;;;;;;;;;5060245;27;97310;-73
2022/07/12 04:21:42;;;;;;;9.50;3.00;;;;;;;;;;5061720;27;95330;-73
2022/07/12 20:37:11;;;;;;;11.53;6.50;;;;;;;;;;5028347;27;2033795;-84
2022/07/12 20:39:38;;;;;;;12.65;6.15;;;;;;;;;;5078657;27;97478;-73
2022/07/12 20:42:09;;;;;;;10.00;6.75;;;;;;;;;;5088215;27;95758;-73
2022/07/12 20:44:36;;;;;;;11.00;6.60;;;;;;;;;;5089006;27;96867;-73
2022/07/12 20:47:03;;;;;;;9.02;7.13;;;;;;;;;;5082545;27;99323;-73
2022/07/12 20:49:37;;;;;;;9.27;6.90;;;;;;;;;;5089967;27;95218;-73
2022/07/12 20:52:03;;;;;;;10.55;7.30;;;;;;;;;;5087868;27;96582;-73
2022/07/12 20:54:30;;;;;;;9.90;7.10;;;;;;;;;;5065090;27;96847;-73
2022/07/12 20:56:57;;;;;;;11.55;7.30;;;;;;;;;;5085433;27;96076;-73
2022/07/12 20:59:24;;;;;;;9.80;7.55;;;;;;;;;;5088459;27;97305;-72
2022/07/12 21:01:51;;;;;;;17.52;7.22;;;;;;;;;;5082296;27;96053;-72
2022/07/12 21:04:18;;;;;;;12.93;7.20;;;;;;;;;;5070224;27;96924;-72
2022/07/12 21:06:44;;;;;;;12.20;7.38;;;;;;;;;;5086908;27;97314;-72
2022/07/12 21:09:11;;;;;;;13.40;7.10;;;;;;;;;;5088739;27;95198;-72
2022/07/12 21:11:37;;;;;;;12.05;6.93;;;;;;;;;;5084190;27;96548;-74
2022/07/12 21:14:05;;;;;;;14.68;6.38;;;;;;;;;;5089094;27;97288;-74
2022/07/12 21:16:36;;;;;;;10.82;6.72;;;;;;;;;;5062810;27;95350;-74
2022/07/12 21:19:02;;;;;;;23.30;6.82;;;;;;;;;;5085065;27;96881;-74
2022/07/12 21:21:29;;;;;;;11.15;6.80;;;;;;;;;;5079075;27;95297;-74
2022/07/12 21:23:55;;;;;;;19.48;7.35;;;;;;;;;;5084445;27;97289;-73
2022/07/12 21:26:21;;;;;;;15.52;6.60;;;;;;;;;;5084276;27;97565;-74
2022/07/12 21:28:49;;;;;;;13.20;6.93;;;;;;;;;;5089309;27;95341;-74
2022/07/12 21:31:16;;;;;;;10.57;6.75;;;;;;;;;;5077582;27;96784;-73
2022/07/12 21:33:43;;;;;;;13.15;6.82;;;;;;;;;;5068519;27;97567;-73
2022/07/12 21:36:10;;;;;;;13.38;7.65;;;;;;;;;;5066096;27;95517;-73
2022/07/12 21:38:36;;;;;;;10.90;6.88;;;;;;;;;;5088277;27;97092;-73
2022/07/12 21:41:03;;;;;;;9.52;6.97;;;;;;;;;;5091771;27;97343;-73
2022/07/12 21:43:29;;;;;;;14.23;7.00;;;;;;;;;;5085796;27;96774;-73
2022/07/12 21:45:55;;;;;;;11.63;7.28;;;;;;;;;;5086519;27;97134;-73
2022/07/12 21:48:22;;;;;;;9.65;6.93;;;;;;;;;;5069090;27;95764;-73
2022/07/12 21:50:48;;;;;;;13.70;7.15;;;;;;;;;;5073116;27;96716;-73
2022/07/12 21:53:14;;;;;;;10.88;6.85;;;;;;;;;;5071058;27;96195;-74
2022/07/12 21:55:41;;;;;;;10.35;6.60;;;;;;;;;;5061538;27;95145;-74
2022/07/12 21:58:09;;;;;;;9.80;6.25;;;;;;;;;;5066603;27;95214;-74
2022/07/12 22:00:37;;;;;;;13.77;6.85;;;;;;;;;;5058487;27;97375;-74
2022/07/12 22:03:05;;;;;;;9.38;6.60;;;;;;;;;;5069182;27;95659;-73
2022/07/12 22:05:31;;;;;;;9.48;7.07;;;;;;;;;;5042192;27;97550;-74
2022/07/12 22:07:57;;;;;;;10.20;6.70;;;;;;;;;;5067564;27;95862;-74
2022/07/12 22:10:24;;;;;;;11.20;6.72;;;;;;;;;;5072292;27;95935;-74
2022/07/12 22:12:50;;;;;;;12.95;7.40;;;;;;;;;;5068560;27;97291;-74
2022/07/12 22:15:17;;;;;;;16.75;6.47;;;;;;;;;;5064520;27;95830;-73
2022/07/12 22:17:43;;;;;;;9.50;7.25;;;;;;;;;;5067329;27;96854;-74
2022/07/12 22:20:10;;;;;;;9.57;7.10;;;;;;;;;;5066019;27;97306;-74
2022/07/12 22:22:36;;;;;;;10.95;7.20;;;;;;;;;;5063196;27;95399;-73
2022/07/12 22:25:03;;;;;;;13.13;6.85;;;;;;;;;;5065021;27;97054;-74
2022/07/12 22:27:29;;;;;;;10.23;7.35;;;;;;;;;;5064134;27;95208;-74
2022/07/12 22:29:55;;;;;;;10.25;7.25;;;;;;;;;;5059546;27;97137;-73
2022/07/12 22:32:22;;;;;;;12.30;7.03;;;;;;;;;;5067750;27;97343;-74
2022/07/12 22:34:48;;;;;;;10.70;6.53;;;;;;;;;;5060042;27;95402;-74
2022/07/12 22:37:15;;;;;;;8.90;6.75;;;;;;;;;;5066302;27;97606;-74
2022/07/12 22:39:41;;;;;;;11.35;6.93;;;;;;;;;;5068491;27;95183;-73
2022/07/12 22:42:07;;;;;;;11.10;7.13;;;;;;;;;;5066738;27;95239;-73
2022/07/12 22:44:34;;;;;;;11.88;6.60;;;;;;;;;;5058881;27;96441;-73
2022/07/12 22:47:00;;;;;;;10.07;7.07;;;;;;;;;;5063858;27;95395;-74
2022/07/12 22:49:27;;;;;;;11.20;7.13;;;;;;;;;;5070619;27;96727;-74
2022/07/12 22:51:53;;;;;;;10.15;7.20;;;;;;;;;;5065771;27;97778;-73
2022/07/12 22:54:21;;;;;;;12.55;7.65;;;;;;;;;;5069016;27;95819;-74
2022/07/12 22:56:48;;;;;;;9.85;6.78;;;;;;;;;;5059816;27;96840;-73
2022/07/12 22:59:14;;;;;;;10.63;7.68;;;;;;;;;;5071208;27;97371;-74
2022/07/12 23:01:41;;;;;;;17.77;8.05;;;;;;;;;;5063581;27;96987;-73
2022/07/12 23:04:07;;;;;;;14.20;7.95;;;;;;;;;;5072552;27;96947;-73
2022/07/12 23:06:34;;;;;;;17.10;9.60;;;;;;;;;;5066791;27;96456;-73
2022/07/12 23:09:01;;;;;;;16.08;9.52;;;;;;;;;;5067807;27;96721;-73
2022/07/12 23:11:27;;;;;;;17.23;10.52;;;;;;;;;;5062412;27;96311;-74
2022/07/12 23:13:53;;;;;;;21.52;11.75;;;;;;;;;;5072147;27;95611;-74
2022/07/12 23:16:20;;;;;;;19.42;11.32;;;;;;;;;;5055314;27;96756;-74
2022/07/12 23:18:46;;;;;;;18.90;12.18;;;;;;;;;;5067245;27;96143;-75
2022/07/12 23:21:12;;;;;;;24.40;12.65;;;;;;;;;;5068781;27;96213;-74
2022/07/12 23:23:39;;;;;;;23.45;11.82;;;;;;;;;;5060566;27;96745;-75
2022/07/12 23:26:06;;;;;;;18.70;12.35;;;;;;;;;;5069209;27;96498;-75
2022/07/12 23:28:32;;;;;;;21.67;11.63;;;;;;;;;;5048594;27;95299;-75
2022/07/12 23:30:58;;;;;;;22.73;12.20;;;;;;;;;;5064403;27;96596;-74
2022/07/12 23:33:25;;;;;;;22.55;12.55;;;;;;;;;;5062913;27;96006;-74
2022/07/12 23:35:51;;;;;;;18.42;12.38;;;;;;;;;;5065422;27;96500;-74
2022/07/12 23:38:17;;;;;;;20.45;11.85;;;;;;;;;;5055765;27;96474;-75
2022/07/12 23:40:44;;;;;;;21.90;12.52;;;;;;;;;;5048452;27;95339;-75
2022/07/12 23:43:11;;;;;;;26.10;12.88;;;;;;;;;;5058408;27;96851;-74
2022/07/12 23:45:37;;;;;;;20.15;14.18;;;;;;;;;;5064508;27;97389;-74
2022/07/12 23:48:03;;;;;;;20.73;13.13;;;;;;;;;;5059376;27;96124;-74
2022/07/12 23:50:30;;;;;;;21.38;12.57;;;;;;;;;;5065889;27;96750;-74
2022/07/12 23:52:56;;;;;;;26.05;14.15;;;;;;;;;;5072547;27;95371;-74
2022/07/12 23:55:23;;;;;;;28.98;13.93;;;;;;;;;;5061926;27;96259;-74
2022/07/12 23:57:49;;;;;;;28.55;14.13;;;;;;;;;;5062920;27;97739;-74
